Terminal Aerodrome Forecast
Issued by NWS Buffalo, NY

Home | Current Version | Previous Version | Text Only | Print | Product List | Glossary On
Versions: 1 2 3 4 5 6 7 8 9 10 11 12 13 14 15 16 17 18 19 20 21 22 23 24 25 26
000
FTUS41 KBUF 280900 AAA
TAFBUF
TAF AMD
KBUF 280944Z 2810/2906 02008KT 5SM -RA BR BKN007 BKN015
     FM281100 01012KT 4SM SHRA BKN007 OVC040
     FM281600 36011KT 6SM -SHRA BKN035 OVC040
     FM281800 34013KT P6SM BKN200
     FM290200 30009KT P6SM SCT050=

USA.gov is the U.S. government's official web portal to all federal, state and local government web resources and services.